sensor_id;sensor_type;location;lat;lon;timestamp;pressure;altitude;pressure_sealevel;temperature;humidity
6389;BME280;3227;42.654;23.360;2024-03-08T00:01:06;94457.47;;;6.28;100.00
6389;BME280;3227;42.654;23.360;2024-03-08T00:03:33;94460.91;;;6.31;100.00
6389;BME280;3227;42.654;23.360;2024-03-08T00:06:00;94461.72;;;6.29;100.00
6389;BME280;3227;42.654;23.360;2024-03-08T00:08:27;94461.56;;;6.17;100.00
6389;BME280;3227;42.654;23.360;2024-03-08T00:10:55;94455.53;;;6.11;100.00
6389;BME280;3227;42.654;23.360;2024-03-08T00:13:21;94462.56;;;6.29;100.00
6389;BME280;3227;42.654;23.360;2024-03-08T00:15:50;94430.31;;;6.25;100.00
6389;BME280;3227;42.654;23.360;2024-03-08T00:18:17;94465.22;;;6.34;100.00
6389;BME280;3227;42.654;23.360;2024-03-08T00:20:43;94436.00;;;6.10;100.00
6389;BME280;3227;42.654;23.360;2024-03-08T00:23:10;94418.81;;;5.96;100.00
6389;BME280;3227;42.654;23.360;2024-03-08T00:25:37;94458.84;;;6.06;100.00
6389;BME280;3227;42.654;23.360;2024-03-08T00:28:05;94452.88;;;6.05;100.00
6389;BME280;3227;42.654;23.360;2024-03-08T00:30:32;94435.81;;;5.98;100.00
6389;BME280;3227;42.654;23.360;2024-03-08T00:32:59;94450.91;;;5.88;100.00
6389;BME280;3227;42.654;23.360;2024-03-08T00:35:25;94440.91;;;5.98;100.00
6389;BME280;3227;42.654;23.360;2024-03-08T00:37:52;94441.09;;;6.09;100.00
6389;BME280;3227;42.654;23.360;2024-03-08T00:40:21;94445.09;;;5.95;100.00
6389;BME280;3227;42.654;23.360;2024-03-08T00:42:49;94445.94;;;5.95;100.00
6389;BME280;3227;42.654;23.360;2024-03-08T00:45:17;94443.31;;;5.89;100.00
6389;BME280;3227;42.654;23.360;2024-03-08T00:47:43;94389.00;;;5.34;100.00
6389;BME280;3227;42.654;23.360;2024-03-08T00:50:11;94440.44;;;5.71;100.00
6389;BME280;3227;42.654;23.360;2024-03-08T00:52:38;94437.97;;;5.76;100.00
6389;BME280;3227;42.654;23.360;2024-03-08T00:55:05;94429.31;;;5.64;100.00
6389;BME280;3227;42.654;23.360;2024-03-08T00:57:33;94433.69;;;5.73;100.00
6389;BME280;3227;42.654;23.360;2024-03-08T01:00:03;94402.19;;;5.63;100.00
6389;BME280;3227;42.654;23.360;2024-03-08T01:02:32;94425.41;;;5.85;100.00
6389;BME280;3227;42.654;23.360;2024-03-08T01:05:00;94374.19;;;5.62;100.00
6389;BME280;3227;42.654;23.360;2024-03-08T01:07:27;94418.81;;;5.93;100.00
6389;BME280;3227;42.654;23.360;2024-03-08T01:09:54;94419.00;;;6.06;100.00
6389;BME280;3227;42.654;23.360;2024-03-08T01:12:21;94415.34;;;5.89;100.00
6389;BME280;3227;42.654;23.360;2024-03-08T01:14:47;94417.84;;;5.88;100.00
6389;BME280;3227;42.654;23.360;2024-03-08T01:17:14;94411.00;;;5.84;100.00
6389;BME280;3227;42.654;23.360;2024-03-08T01:19:42;94417.78;;;5.85;100.00
6389;BME280;3227;42.654;23.360;2024-03-08T01:22:10;94408.34;;;5.79;100.00
6389;BME280;3227;42.654;23.360;2024-03-08T01:24:36;94409.31;;;5.86;100.00
6389;BME280;3227;42.654;23.360;2024-03-08T01:27:04;94408.34;;;5.79;100.00
6389;BME280;3227;42.654;23.360;2024-03-08T01:29:31;94394.66;;;5.71;100.00
6389;BME280;3227;42.654;23.360;2024-03-08T01:31:57;94408.25;;;5.71;100.00
6389;BME280;3227;42.654;23.360;2024-03-08T01:34:27;94401.16;;;5.54;100.00
6389;BME280;3227;42.654;23.360;2024-03-08T01:36:55;94403.03;;;5.64;100.00
6389;BME280;3227;42.654;23.360;2024-03-08T01:39:22;94393.03;;;5.73;100.00
6389;BME280;3227;42.654;23.360;2024-03-08T01:41:49;94399.72;;;5.68;100.00
6389;BME280;3227;42.654;23.360;2024-03-08T01:44:16;94388.53;;;5.57;100.00
6389;BME280;3227;42.654;23.360;2024-03-08T01:46:44;94402.00;;;5.51;100.00
6389;BME280;3227;42.654;23.360;2024-03-08T01:49:11;94363.84;;;5.50;100.00
6389;BME280;3227;42.654;23.360;2024-03-08T01:51:39;94398.25;;;5.82;100.00
6389;BME280;3227;42.654;23.360;2024-03-08T01:54:08;94398.28;;;5.85;100.00
6389;BME280;3227;42.654;23.360;2024-03-08T01:56:38;94391.50;;;5.84;100.00
6389;BME280;3227;42.654;23.360;2024-03-08T01:59:06;94399.44;;;6.04;100.00
6389;BME280;3227;42.654;23.360;2024-03-08T02:01:34;94402.31;;;6.25;100.00
6389;BME280;3227;42.654;23.360;2024-03-08T02:04:01;94390.72;;;6.45;100.00
6389;BME280;3227;42.654;23.360;2024-03-08T02:06:27;94398.50;;;6.56;100.00
6389;BME280;3227;42.654;23.360;2024-03-08T02:08:55;94395.88;;;6.50;100.00
6389;BME280;3227;42.654;23.360;2024-03-08T02:11:23;94391.41;;;6.34;100.00
6389;BME280;3227;42.654;23.360;2024-03-08T02:13:50;94391.00;;;6.05;100.00
6389;BME280;3227;42.654;23.360;2024-03-08T02:16:20;94392.19;;;6.30;100.00
6389;BME280;3227;42.654;23.360;2024-03-08T02:18:47;94372.00;;;6.43;100.00
6389;BME280;3227;42.654;23.360;2024-03-08T02:21:17;94335.00;;;6.03;100.00
6389;BME280;3227;42.654;23.360;2024-03-08T02:23:44;94353.31;;;6.40;100.00
6389;BME280;3227;42.654;23.360;2024-03-08T02:26:11;94400.59;;;6.89;100.00
6389;BME280;3227;42.654;23.360;2024-03-08T02:28:38;94393.91;;;7.00;100.00
6389;BME280;3227;42.654;23.360;2024-03-08T02:31:08;94396.66;;;7.18;100.00
6389;BME280;3227;42.654;23.360;2024-03-08T02:33:35;94401.88;;;7.29;100.00
6389;BME280;3227;42.654;23.360;2024-03-08T02:36:01;94404.56;;;7.43;100.00
6389;BME280;3227;42.654;23.360;2024-03-08T02:38:30;94389.13;;;7.28;100.00
6389;BME280;3227;42.654;23.360;2024-03-08T02:40:57;94410.50;;;7.40;100.00
6389;BME280;3227;42.654;23.360;2024-03-08T02:43:24;94411.41;;;7.47;99.77
6389;BME280;3227;42.654;23.360;2024-03-08T02:45:51;94413.97;;;7.51;99.68
6389;BME280;3227;42.654;23.360;2024-03-08T02:48:18;94407.06;;;7.41;97.57
6389;BME280;3227;42.654;23.360;2024-03-08T02:50:46;94412.00;;;7.23;96.84
6389;BME280;3227;42.654;23.360;2024-03-08T02:53:13;94417.03;;;7.15;95.86
6389;BME280;3227;42.654;23.360;2024-03-08T02:55:41;94416.22;;;7.21;97.41
6389;BME280;3227;42.654;23.360;2024-03-08T02:58:08;94414.63;;;7.29;96.88
6389;BME280;3227;42.654;23.360;2024-03-08T03:00:36;94416.38;;;7.36;97.47
6389;BME280;3227;42.654;23.360;2024-03-08T03:03:04;94343.81;;;6.98;98.09
6389;BME280;3227;42.654;23.360;2024-03-08T03:05:32;94416.47;;;7.45;97.37
6389;BME280;3227;42.654;23.360;2024-03-08T03:07:59;94403.69;;;7.42;97.60
6389;BME280;3227;42.654;23.360;2024-03-08T03:10:26;94420.78;;;7.52;96.35
6389;BME280;3227;42.654;23.360;2024-03-08T03:12:59;94400.25;;;7.37;93.91
6389;BME280;3227;42.654;23.360;2024-03-08T03:15:25;94425.03;;;7.52;92.59
6389;BME280;3227;42.654;23.360;2024-03-08T03:17:52;94432.72;;;7.53;92.97
6389;BME280;3227;42.654;23.360;2024-03-08T03:20:19;94431.94;;;7.62;92.52
6389;BME280;3227;42.654;23.360;2024-03-08T03:22:52;94418.28;;;7.54;90.31
6389;BME280;3227;42.654;23.360;2024-03-08T03:25:19;94433.59;;;7.57;89.65
6389;BME280;3227;42.654;23.360;2024-03-08T03:27:51;94436.94;;;7.53;88.92
6389;BME280;3227;42.654;23.360;2024-03-08T03:30:20;94430.19;;;7.58;89.67
6389;BME280;3227;42.654;23.360;2024-03-08T03:32:47;94429.38;;;7.57;90.69
6389;BME280;3227;42.654;23.360;2024-03-08T03:35:15;94437.84;;;7.59;90.96
6389;BME280;3227;42.654;23.360;2024-03-08T03:37:41;94438.75;;;7.63;91.03
6389;BME280;3227;42.654;23.360;2024-03-08T03:40:12;94449.81;;;7.63;88.47
6389;BME280;3227;42.654;23.360;2024-03-08T03:42:39;94441.25;;;7.58;87.65
6389;BME280;3227;42.654;23.360;2024-03-08T03:45:06;94448.88;;;7.58;86.26
6389;BME280;3227;42.654;23.360;2024-03-08T03:47:36;94446.28;;;7.49;85.09
6389;BME280;3227;42.654;23.360;2024-03-08T03:50:04;94450.53;;;7.49;85.34
6389;BME280;3227;42.654;23.360;2024-03-08T03:52:31;94457.31;;;7.51;86.96
6389;BME280;3227;42.654;23.360;2024-03-08T03:54:58;94452.25;;;7.53;88.01
6389;BME280;3227;42.654;23.360;2024-03-08T03:57:25;94463.34;;;7.59;87.71
6389;BME280;3227;42.654;23.360;2024-03-08T03:59:51;94461.69;;;7.63;87.68
6389;BME280;3227;42.654;23.360;2024-03-08T04:02:18;94457.41;;;7.59;87.14
6389;BME280;3227;42.654;23.360;2024-03-08T04:04:47;94461.69;;;7.61;86.42
6389;BME280;3227;42.654;23.360;2024-03-08T04:07:14;94465.94;;;7.62;86.54
6389;BME280;3227;42.654;23.360;2024-03-08T04:09:42;94454.84;;;7.57;87.00
6389;BME280;3227;42.654;23.360;2024-03-08T04:12:08;94467.59;;;7.57;84.92
6389;BME280;3227;42.654;23.360;2024-03-08T04:14:35;94470.94;;;7.53;84.85
6389;BME280;3227;42.654;23.360;2024-03-08T04:17:02;94469.97;;;7.42;86.28
6389;BME280;3227;42.654;23.360;2024-03-08T04:19:29;94477.66;;;7.45;87.10
6389;BME280;3227;42.654;23.360;2024-03-08T04:21:57;94474.31;;;7.48;87.86
6389;BME280;3227;42.654;23.360;2024-03-08T04:24:24;94474.31;;;7.49;87.28
6389;BME280;3227;42.654;23.360;2024-03-08T04:26:50;94476.88;;;7.52;86.01
6389;BME280;3227;42.654;23.360;2024-03-08T04:29:18;94480.25;;;7.51;87.58
6389;BME280;3227;42.654;23.360;2024-03-08T04:31:45;94481.97;;;7.51;86.36
6389;BME280;3227;42.654;23.360;2024-03-08T04:34:17;94493.69;;;7.35;83.69
6389;BME280;3227;42.654;23.360;2024-03-08T04:36:44;94454.75;;;6.76;84.65
6389;BME280;3227;42.654;23.360;2024-03-08T04:39:12;94489.97;;;7.09;85.42
6389;BME280;3227;42.654;23.360;2024-03-08T04:41:41;94490.84;;;7.11;85.68
6389;BME280;3227;42.654;23.360;2024-03-08T04:44:09;94494.41;;;7.25;86.33
6389;BME280;3227;42.654;23.360;2024-03-08T04:46:36;94465.34;;;7.09;87.23
6389;BME280;3227;42.654;23.360;2024-03-08T04:49:02;94421.84;;;6.91;87.37
6389;BME280;3227;42.654;23.360;2024-03-08T04:51:29;94491.97;;;7.31;86.39
6389;BME280;3227;42.654;23.360;2024-03-08T04:53:56;94479.88;;;7.18;85.62
6389;BME280;3227;42.654;23.360;2024-03-08T04:56:24;94497.88;;;7.29;85.92
6389;BME280;3227;42.654;23.360;2024-03-08T04:58:51;94497.00;;;7.28;87.12
6389;BME280;3227;42.654;23.360;2024-03-08T05:01:18;94503.00;;;7.33;86.37
6389;BME280;3227;42.654;23.360;2024-03-08T05:03:45;94452.59;;;7.06;86.53
6389;BME280;3227;42.654;23.360;2024-03-08T05:06:15;94509.84;;;7.37;86.14
6389;BME280;3227;42.654;23.360;2024-03-08T05:08:42;94507.31;;;7.37;86.60
6389;BME280;3227;42.654;23.360;2024-03-08T05:11:09;94509.91;;;7.42;86.83
6389;BME280;3227;42.654;23.360;2024-03-08T05:13:37;94515.84;;;7.42;86.31
6389;BME280;3227;42.654;23.360;2024-03-08T05:16:04;94521.03;;;7.48;86.86
6389;BME280;3227;42.654;23.360;2024-03-08T05:18:32;94516.84;;;7.53;87.50
6389;BME280;3227;42.654;23.360;2024-03-08T05:20:59;94519.38;;;7.53;87.11
6389;BME280;3227;42.654;23.360;2024-03-08T05:23:29;94520.25;;;7.54;86.79
6389;BME280;3227;42.654;23.360;2024-03-08T05:25:56;94526.22;;;7.56;86.31
6389;BME280;3227;42.654;23.360;2024-03-08T05:28:22;94475.69;;;7.20;86.75
6389;BME280;3227;42.654;23.360;2024-03-08T05:30:50;94531.41;;;7.63;85.77
6389;BME280;3227;42.654;23.360;2024-03-08T05:33:17;94499.63;;;7.36;85.82
6389;BME280;3227;42.654;23.360;2024-03-08T05:35:44;94518.44;;;7.44;86.05
6389;BME280;3227;42.654;23.360;2024-03-08T05:38:11;94541.41;;;7.47;86.13
6389;BME280;3227;42.654;23.360;2024-03-08T05:40:38;94538.69;;;7.32;86.92
6389;BME280;3227;42.654;23.360;2024-03-08T05:43:05;94545.78;;;6.92;88.51
6389;BME280;3227;42.654;23.360;2024-03-08T05:45:31;94555.38;;;6.51;92.05
6389;BME280;3227;42.654;23.360;2024-03-08T05:48:01;94560.59;;;6.60;91.95
6389;BME280;3227;42.654;23.360;2024-03-08T05:50:27;94550.53;;;6.66;92.32
6389;BME280;3227;42.654;23.360;2024-03-08T05:52:54;94560.81;;;6.75;92.43
6389;BME280;3227;42.654;23.360;2024-03-08T05:55:21;94562.47;;;6.70;92.55
6389;BME280;3227;42.654;23.360;2024-03-08T05:57:50;94559.81;;;6.63;93.61
6389;BME280;3227;42.654;23.360;2024-03-08T06:00:18;94566.78;;;6.22;94.88
6389;BME280;3227;42.654;23.360;2024-03-08T06:02:44;94566.38;;;5.99;96.29
6389;BME280;3227;42.654;23.360;2024-03-08T06:05:13;94579.47;;;6.20;96.86
6389;BME280;3227;42.654;23.360;2024-03-08T06:07:39;94571.00;;;6.21;96.45
6389;BME280;3227;42.654;23.360;2024-03-08T06:10:08;94581.38;;;6.32;94.71
6389;BME280;3227;42.654;23.360;2024-03-08T06:12:37;94583.25;;;5.50;98.04
6389;BME280;3227;42.654;23.360;2024-03-08T06:15:07;94586.22;;;5.73;98.00
6389;BME280;3227;42.654;23.360;2024-03-08T06:17:35;94575.63;;;5.50;98.37
6389;BME280;3227;42.654;23.360;2024-03-08T06:20:02;94596.22;;;5.64;98.08
6389;BME280;3227;42.654;23.360;2024-03-08T06:22:36;94602.69;;;5.90;96.42
6389;BME280;3227;42.654;23.360;2024-03-08T06:25:04;94601.78;;;5.88;96.39
6389;BME280;3227;42.654;23.360;2024-03-08T06:27:32;94586.00;;;6.06;95.72
6389;BME280;3227;42.654;23.360;2024-03-08T06:29:59;94602.75;;;6.43;95.72
6389;BME280;3227;42.654;23.360;2024-03-08T06:32:26;94602.97;;;6.55;94.39
6389;BME280;3227;42.654;23.360;2024-03-08T06:34:52;94605.72;;;6.18;94.85
6389;BME280;3227;42.654;23.360;2024-03-08T06:37:19;94604.47;;;6.44;94.38
6389;BME280;3227;42.654;23.360;2024-03-08T06:39:48;94608.97;;;6.10;95.02
6389;BME280;3227;42.654;23.360;2024-03-08T06:42:16;94591.78;;;5.97;96.38
6389;BME280;3227;42.654;23.360;2024-03-08T06:44:43;94609.28;;;5.82;93.56
6389;BME280;3227;42.654;23.360;2024-03-08T06:47:14;94600.69;;;5.33;94.93
6389;BME280;3227;42.654;23.360;2024-03-08T06:49:41;94540.75;;;5.01;94.54
6389;BME280;3227;42.654;23.360;2024-03-08T06:52:08;94611.22;;;5.52;94.60
6389;BME280;3227;42.654;23.360;2024-03-08T06:54:35;94615.34;;;5.47;95.40
6389;BME280;3227;42.654;23.360;2024-03-08T06:57:04;94617.28;;;5.58;94.58
6389;BME280;3227;42.654;23.360;2024-03-08T06:59:31;94615.78;;;5.27;96.42
6389;BME280;3227;42.654;23.360;2024-03-08T07:01:57;94606.81;;;5.43;96.79
6389;BME280;3227;42.654;23.360;2024-03-08T07:04:25;94449.75;;;4.80;95.02
6389;BME280;3227;42.654;23.360;2024-03-08T07:06:54;94613.41;;;5.77;94.79
6389;BME280;3227;42.654;23.360;2024-03-08T07:09:20;94620.34;;;5.84;94.55
6389;BME280;3227;42.654;23.360;2024-03-08T07:11:47;94613.88;;;6.00;93.27
6389;BME280;3227;42.654;23.360;2024-03-08T07:14:25;94562.44;;;5.71;90.95
6389;BME280;3227;42.654;23.360;2024-03-08T07:16:56;94616.84;;;5.79;90.99
6389;BME280;3227;42.654;23.360;2024-03-08T07:19:23;94625.47;;;5.87;89.58
6389;BME280;3227;42.654;23.360;2024-03-08T07:21:49;94625.97;;;5.69;89.14
6389;BME280;3227;42.654;23.360;2024-03-08T07:24:16;94627.03;;;5.39;90.72
6389;BME280;3227;42.654;23.360;2024-03-08T07:27:04;94629.19;;;5.20;92.31
6389;BME280;3227;42.654;23.360;2024-03-08T07:29:32;94629.69;;;5.45;91.61
6389;BME280;3227;42.654;23.360;2024-03-08T07:31:59;94624.88;;;5.57;91.58
6389;BME280;3227;42.654;23.360;2024-03-08T07:34:38;94626.34;;;5.46;93.19
6389;BME280;3227;42.654;23.360;2024-03-08T07:37:05;94633.88;;;5.83;92.55
6389;BME280;3227;42.654;23.360;2024-03-08T07:39:32;94629.78;;;5.90;91.11
6389;BME280;3227;42.654;23.360;2024-03-08T07:41:59;94642.34;;;6.26;89.48
6389;BME280;3227;42.654;23.360;2024-03-08T07:44:26;94639.81;;;6.27;89.18
6389;BME280;3227;42.654;23.360;2024-03-08T07:46:54;94637.03;;;6.14;90.47
6389;BME280;3227;42.654;23.360;2024-03-08T07:49:21;94631.84;;;6.57;89.90
6389;BME280;3227;42.654;23.360;2024-03-08T07:51:48;94634.09;;;6.92;86.74
6389;BME280;3227;42.654;23.360;2024-03-08T07:54:15;94638.16;;;6.80;86.73
6389;BME280;3227;42.654;23.360;2024-03-08T07:56:42;94630.91;;;6.52;88.14
6389;BME280;3227;42.654;23.360;2024-03-08T07:59:09;94644.47;;;6.51;88.84
6389;BME280;3227;42.654;23.360;2024-03-08T08:01:37;94637.28;;;6.29;90.32
6389;BME280;3227;42.654;23.360;2024-03-08T08:04:05;94618.00;;;6.40;88.67
6389;BME280;3227;42.654;23.360;2024-03-08T08:06:32;94632.84;;;6.65;88.78
6389;BME280;3227;42.654;23.360;2024-03-08T08:09:00;94620.19;;;6.71;87.76
6389;BME280;3227;42.654;23.360;2024-03-08T08:11:27;94641.19;;;7.11;87.03
6389;BME280;3227;42.654;23.360;2024-03-08T08:13:59;94631.06;;;7.17;85.84
6389;BME280;3227;42.654;23.360;2024-03-08T08:16:26;94623.69;;;7.35;84.10
6389;BME280;3227;42.654;23.360;2024-03-08T08:18:52;94622.59;;;7.18;84.39
6389;BME280;3227;42.654;23.360;2024-03-08T08:21:21;94627.13;;;7.39;83.49
6389;BME280;3227;42.654;23.360;2024-03-08T08:23:48;94621.03;;;7.28;83.49
6389;BME280;3227;42.654;23.360;2024-03-08T08:26:14;94629.88;;;7.54;83.87
6389;BME280;3227;42.654;23.360;2024-03-08T08:28:42;94630.44;;;7.98;83.54
6389;BME280;3227;42.654;23.360;2024-03-08T08:31:11;94631.72;;;8.36;81.88
6389;BME280;3227;42.654;23.360;2024-03-08T08:33:38;94628.50;;;8.59;81.67
6389;BME280;3227;42.654;23.360;2024-03-08T08:36:06;94638.16;;;8.89;81.40
6389;BME280;3227;42.654;23.360;2024-03-08T08:38:34;94595.78;;;9.21;79.39
6389;BME280;3227;42.654;23.360;2024-03-08T08:41:01;94634.41;;;9.71;76.03
6389;BME280;3227;42.654;23.360;2024-03-08T08:43:28;94638.75;;;9.90;74.94
6389;BME280;3227;42.654;23.360;2024-03-08T08:45:55;94634.34;;;9.62;72.07
6389;BME280;3227;42.654;23.360;2024-03-08T08:48:21;94635.03;;;9.34;72.88
6389;BME280;3227;42.654;23.360;2024-03-08T08:50:49;94625.59;;;9.24;74.80
6389;BME280;3227;42.654;23.360;2024-03-08T08:53:18;94617.03;;;9.14;76.24
6389;BME280;3227;42.654;23.360;2024-03-08T08:55:46;94632.25;;;9.00;74.28
6389;BME280;3227;42.654;23.360;2024-03-08T08:58:13;94634.97;;;9.25;72.66
6389;BME280;3227;42.654;23.360;2024-03-08T09:00:40;94634.78;;;8.99;74.21
6389;BME280;3227;42.654;23.360;2024-03-08T09:03:07;94621.28;;;8.20;75.62
6389;BME280;3227;42.654;23.360;2024-03-08T09:05:34;94633.53;;;8.50;76.02
6389;BME280;3227;42.654;23.360;2024-03-08T09:08:01;94625.31;;;8.81;73.94
6389;BME280;3227;42.654;23.360;2024-03-08T09:10:28;94621.44;;;9.41;74.69
6389;BME280;3227;42.654;23.360;2024-03-08T09:12:56;94623.28;;;9.66;71.94
6389;BME280;3227;42.654;23.360;2024-03-08T09:15:24;94632.84;;;10.16;70.73
6389;BME280;3227;42.654;23.360;2024-03-08T09:17:54;94630.41;;;10.46;70.54
6389;BME280;3227;42.654;23.360;2024-03-08T09:20:20;94575.75;;;10.26;67.60
6389;BME280;3227;42.654;23.360;2024-03-08T09:22:47;94623.59;;;10.66;66.80
6389;BME280;3227;42.654;23.360;2024-03-08T09:25:14;94621.03;;;10.51;66.07
6389;BME280;3227;42.654;23.360;2024-03-08T09:27:41;94623.63;;;11.00;65.90
6389;BME280;3227;42.654;23.360;2024-03-08T09:30:10;94621.00;;;11.50;65.70
6389;BME280;3227;42.654;23.360;2024-03-08T09:32:38;94614.97;;;11.66;62.63
6389;BME280;3227;42.654;23.360;2024-03-08T09:35:05;94621.81;;;11.66;59.22
6389;BME280;3227;42.654;23.360;2024-03-08T09:37:33;94621.81;;;11.57;61.27
6389;BME280;3227;42.654;23.360;2024-03-08T09:40:00;94618.44;;;11.30;59.33
6389;BME280;3227;42.654;23.360;2024-03-08T09:42:30;94613.34;;;11.09;60.14
6389;BME280;3227;42.654;23.360;2024-03-08T09:45:02;94612.47;;;11.36;62.55
6389;BME280;3227;42.654;23.360;2024-03-08T09:47:32;94603.91;;;10.24;64.51
6389;BME280;3227;42.654;23.360;2024-03-08T09:50:00;94616.75;;;10.64;66.82
6389;BME280;3227;42.654;23.360;2024-03-08T09:52:27;94616.78;;;11.10;66.66
6389;BME280;3227;42.654;23.360;2024-03-08T09:54:56;94621.03;;;10.82;62.96
6389;BME280;3227;42.654;23.360;2024-03-08T09:57:23;94614.91;;;10.07;65.61
6389;BME280;3227;42.654;23.360;2024-03-08T09:59:51;94428.53;;;8.75;65.20
6389;BME280;3227;42.654;23.360;2024-03-08T10:02:18;94619.88;;;9.67;67.19
6389;BME280;3227;42.654;23.360;2024-03-08T10:04:47;94619.97;;;9.85;66.26
6389;BME280;3227;42.654;23.360;2024-03-08T10:10:11;94625.06;;;8.57;70.74
6389;BME280;3227;42.654;23.360;2024-03-08T10:12:38;94627.97;;;8.96;69.73
6389;BME280;3227;42.654;23.360;2024-03-08T10:15:06;94626.16;;;8.80;70.26
6389;BME280;3227;42.654;23.360;2024-03-08T10:17:34;94617.41;;;8.55;71.16
6389;BME280;3227;42.654;23.360;2024-03-08T10:20:02;94621.03;;;8.83;69.48
6389;BME280;3227;42.654;23.360;2024-03-08T10:22:40;94571.34;;;8.45;67.70
6389;BME280;3227;42.654;23.360;2024-03-08T10:25:09;94611.09;;;9.24;69.44
6389;BME280;3227;42.654;23.360;2024-03-08T10:27:38;94615.25;;;9.07;68.63
6389;BME280;3227;42.654;23.360;2024-03-08T10:30:06;94617.84;;;9.11;69.32
6389;BME280;3227;42.654;23.360;2024-03-08T10:32:37;94609.56;;;9.52;67.43
6389;BME280;3227;42.654;23.360;2024-03-08T10:35:07;94611.00;;;9.04;68.45
6389;BME280;3227;42.654;23.360;2024-03-08T10:37:40;94585.44;;;9.07;68.12
6389;BME280;3227;42.654;23.360;2024-03-08T10:40:15;94604.41;;;9.43;69.31
6389;BME280;3227;42.654;23.360;2024-03-08T10:42:52;94536.31;;;9.63;67.31
6389;BME280;3227;42.654;23.360;2024-03-08T10:45:26;94600.53;;;10.38;64.63
6389;BME280;3227;42.654;23.360;2024-03-08T10:48:09;94564.66;;;10.66;63.26
6389;BME280;3227;42.654;23.360;2024-03-08T10:50:43;94591.16;;;10.84;60.99
6389;BME280;3227;42.654;23.360;2024-03-08T10:53:11;94599.63;;;10.26;63.35
6389;BME280;3227;42.654;23.360;2024-03-08T10:55:40;94601.22;;;9.88;63.95
6389;BME280;3227;42.654;23.360;2024-03-08T10:58:07;94590.00;;;9.62;63.74
6389;BME280;3227;42.654;23.360;2024-03-08T11:00:34;94596.66;;;9.31;65.48
6389;BME280;3227;42.654;23.360;2024-03-08T11:03:02;94588.91;;;9.14;67.31
6389;BME280;3227;42.654;23.360;2024-03-08T11:05:36;94468.28;;;8.33;67.68
6389;BME280;3227;42.654;23.360;2024-03-08T11:08:16;94551.41;;;9.14;65.82
6389;BME280;3227;42.654;23.360;2024-03-08T11:10:48;94585.34;;;8.92;67.81
6389;BME280;3227;42.654;23.360;2024-03-08T11:13:32;94567.59;;;9.16;67.11
6389;BME280;3227;42.654;23.360;2024-03-08T11:15:59;94574.38;;;9.08;67.52
6389;BME280;3227;42.654;23.360;2024-03-08T11:18:26;94576.97;;;9.16;67.97
6389;BME280;3227;42.654;23.360;2024-03-08T11:20:54;94565.13;;;9.32;67.26
6389;BME280;3227;42.654;23.360;2024-03-08T11:23:23;94476.31;;;8.93;66.62
6389;BME280;3227;42.654;23.360;2024-03-08T11:25:51;94564.38;;;9.52;66.21
6389;BME280;3227;42.654;23.360;2024-03-08T11:28:20;94567.03;;;9.69;67.43
6389;BME280;3227;42.654;23.360;2024-03-08T11:31:22;94543.13;;;9.73;65.54
6389;BME280;3227;42.654;23.360;2024-03-08T11:33:50;94563.69;;;9.95;65.00
6389;BME280;3227;42.654;23.360;2024-03-08T11:36:20;94555.03;;;9.58;64.94
6389;BME280;3227;42.654;23.360;2024-03-08T11:38:49;94556.78;;;9.63;64.89
6389;BME280;3227;42.654;23.360;2024-03-08T11:41:17;94551.63;;;9.60;64.23
6389;BME280;3227;42.654;23.360;2024-03-08T11:43:45;94548.25;;;9.73;64.16
6389;BME280;3227;42.654;23.360;2024-03-08T11:46:12;94554.22;;;9.74;64.76
6389;BME280;3227;42.654;23.360;2024-03-08T11:48:39;94562.06;;;10.24;61.92
6389;BME280;3227;42.654;23.360;2024-03-08T11:51:07;94563.69;;;9.96;62.65
6389;BME280;3227;42.654;23.360;2024-03-08T11:53:35;94556.97;;;10.21;61.08
6389;BME280;3227;42.654;23.360;2024-03-08T11:56:08;94547.47;;;9.94;60.31
6389;BME280;3227;42.654;23.360;2024-03-08T11:58:35;94467.91;;;9.16;61.46
6389;BME280;3227;42.654;23.360;2024-03-08T12:01:03;94555.06;;;9.62;61.13
6389;BME280;3227;42.654;23.360;2024-03-08T12:03:36;94560.06;;;9.41;62.07
6389;BME280;3227;42.654;23.360;2024-03-08T12:06:04;94543.00;;;9.40;61.79
6389;BME280;3227;42.654;23.360;2024-03-08T12:08:31;94552.53;;;9.70;62.46
6389;BME280;3227;42.654;23.360;2024-03-08T12:10:58;94547.56;;;10.18;61.57
6389;BME280;3227;42.654;23.360;2024-03-08T12:13:27;94541.63;;;10.59;58.98
6389;BME280;3227;42.654;23.360;2024-03-08T12:15:56;94548.44;;;10.67;58.66
6389;BME280;3227;42.654;23.360;2024-03-08T12:18:24;94545.88;;;10.78;57.87
6389;BME280;3227;42.654;23.360;2024-03-08T12:20:51;94550.13;;;10.41;58.87
6389;BME280;3227;42.654;23.360;2024-03-08T12:23:19;94534.59;;;9.68;61.60
6389;BME280;3227;42.654;23.360;2024-03-08T12:25:45;94543.13;;;9.63;62.28
6389;BME280;3227;42.654;23.360;2024-03-08T12:28:13;94545.66;;;9.60;63.34
6389;BME280;3227;42.654;23.360;2024-03-08T12:30:46;94547.31;;;9.50;63.61
6389;BME280;3227;42.654;23.360;2024-03-08T12:33:14;94542.13;;;9.35;63.42
6389;BME280;3227;42.654;23.360;2024-03-08T12:35:50;94534.25;;;8.92;64.44
6389;BME280;3227;42.654;23.360;2024-03-08T12:38:19;94539.41;;;9.01;64.54
6389;BME280;3227;42.654;23.360;2024-03-08T12:40:50;94539.50;;;9.16;63.12
6389;BME280;3227;42.654;23.360;2024-03-08T12:43:18;94536.06;;;9.11;63.22
6389;BME280;3227;42.654;23.360;2024-03-08T12:45:46;94526.84;;;9.50;62.72
6389;BME280;3227;42.654;23.360;2024-03-08T12:48:14;94517.56;;;9.70;61.83
6389;BME280;3227;42.654;23.360;2024-03-08T12:50:40;94528.63;;;9.69;61.41
6389;BME280;3227;42.654;23.360;2024-03-08T12:53:09;94485.03;;;9.39;62.02
6389;BME280;3227;42.654;23.360;2024-03-08T12:55:35;94526.88;;;9.58;62.08
6389;BME280;3227;42.654;23.360;2024-03-08T12:58:04;94522.53;;;9.34;64.41
6389;BME280;3227;42.654;23.360;2024-03-08T13:00:32;94536.88;;;9.09;63.95
6389;BME280;3227;42.654;23.360;2024-03-08T13:03:03;94494.09;;;8.71;65.01
6389;BME280;3227;42.654;23.360;2024-03-08T13:05:31;94431.78;;;8.50;64.70
6389;BME280;3227;42.654;23.360;2024-03-08T13:07:58;94470.28;;;8.78;63.39
6389;BME280;3227;42.654;23.360;2024-03-08T13:10:25;94526.78;;;9.33;63.70
6389;BME280;3227;42.654;23.360;2024-03-08T13:12:52;94502.94;;;9.37;63.61
6389;BME280;3227;42.654;23.360;2024-03-08T13:15:20;94529.53;;;9.89;62.20
6389;BME280;3227;42.654;23.360;2024-03-08T13:17:47;94432.19;;;9.30;61.25
6389;BME280;3227;42.654;23.360;2024-03-08T13:20:15;94425.25;;;9.06;61.70
6389;BME280;3227;42.654;23.360;2024-03-08T13:22:45;94532.91;;;9.73;61.41
6389;BME280;3227;42.654;23.360;2024-03-08T13:25:11;94517.44;;;9.37;61.74
6389;BME280;3227;42.654;23.360;2024-03-08T13:27:39;94523.53;;;9.74;60.59